sensor_id;sensor_type;location;lat;lon;timestamp;pressure;altitude;pressure_sealevel;temperature;humidity
5777;BME280;2914;42.668;23.346;2023-04-07T00:00:10;94228.94;;;4.70;53.59
5777;BME280;2914;42.668;23.346;2023-04-07T00:02:39;94232.38;;;4.40;54.12
5777;BME280;2914;42.668;23.346;2023-04-07T00:05:09;94229.63;;;4.36;53.77
5777;BME280;2914;42.668;23.346;2023-04-07T00:07:38;94227.22;;;4.22;54.23
5777;BME280;2914;42.668;23.346;2023-04-07T00:10:09;94228.95;;;4.16;54.45
5777;BME280;2914;42.668;23.346;2023-04-07T00:15:22;94224.92;;;4.17;54.76
5777;BME280;2914;42.668;23.346;2023-04-07T00:17:51;94222.17;;;4.13;54.76
5777;BME280;2914;42.668;23.346;2023-04-07T00:20:20;94226.77;;;4.34;54.55
5777;BME280;2914;42.668;23.346;2023-04-07T00:22:49;94223.11;;;4.36;54.29
5777;BME280;2914;42.668;23.346;2023-04-07T00:25:18;94226.30;;;4.29;54.23
5777;BME280;2914;42.668;23.346;2023-04-07T00:27:47;94221.95;;;4.46;53.86
5777;BME280;2914;42.668;23.346;2023-04-07T00:30:17;94225.17;;;4.44;53.49
5777;BME280;2914;42.668;23.346;2023-04-07T00:32:46;94227.16;;;4.40;53.56
5777;BME280;2914;42.668;23.346;2023-04-07T00:35:18;94221.48;;;4.41;53.36
5777;BME280;2914;42.668;23.346;2023-04-07T00:37:47;94220.34;;;4.27;53.91
5777;BME280;2914;42.668;23.346;2023-04-07T00:40:17;94219.08;;;4.08;54.16
5777;BME280;2914;42.668;23.346;2023-04-07T00:42:46;94217.44;;;4.13;54.00
5777;BME280;2914;42.668;23.346;2023-04-07T00:45:15;94226.91;;;4.08;53.94
5777;BME280;2914;42.668;23.346;2023-04-07T00:47:44;94225.38;;;4.11;54.00
5777;BME280;2914;42.668;23.346;2023-04-07T00:50:13;94226.31;;;4.10;54.54
5777;BME280;2914;42.668;23.346;2023-04-07T00:55:10;94223.55;;;4.24;53.83
5777;BME280;2914;42.668;23.346;2023-04-07T00:57:39;94218.80;;;4.30;54.15
5777;BME280;2914;42.668;23.346;2023-04-07T01:00:10;94226.02;;;4.56;53.78
5777;BME280;2914;42.668;23.346;2023-04-07T01:02:42;94221.05;;;4.58;53.33
5777;BME280;2914;42.668;23.346;2023-04-07T01:05:16;94220.90;;;4.49;53.19
5777;BME280;2914;42.668;23.346;2023-04-07T01:07:51;94229.83;;;4.22;53.62
5777;BME280;2914;42.668;23.346;2023-04-07T01:10:25;94219.54;;;4.32;53.65
5777;BME280;2914;42.668;23.346;2023-04-07T01:12:59;94214.18;;;4.28;53.65
5777;BME280;2914;42.668;23.346;2023-04-07T01:15:29;94202.66;;;4.24;53.41
5777;BME280;2914;42.668;23.346;2023-04-07T01:18:04;94212.02;;;4.27;53.56
5777;BME280;2914;42.668;23.346;2023-04-07T01:20:35;94214.84;;;4.18;53.77
5777;BME280;2914;42.668;23.346;2023-04-07T01:23:06;94217.69;;;4.15;53.79
5777;BME280;2914;42.668;23.346;2023-04-07T01:28:56;94209.00;;;4.39;53.06
5777;BME280;2914;42.668;23.346;2023-04-07T01:31:26;94213.19;;;4.53;52.91
5777;BME280;2914;42.668;23.346;2023-04-07T01:33:58;94203.80;;;4.50;53.00
5777;BME280;2914;42.668;23.346;2023-04-07T01:36:29;94211.86;;;4.41;52.23
5777;BME280;2914;42.668;23.346;2023-04-07T01:39:01;94209.27;;;4.47;52.85
5777;BME280;2914;42.668;23.346;2023-04-07T01:41:31;94204.86;;;4.48;53.38
5777;BME280;2914;42.668;23.346;2023-04-07T01:44:02;94205.36;;;4.53;53.65
5777;BME280;2914;42.668;23.346;2023-04-07T01:46:32;94207.69;;;4.39;54.13
5777;BME280;2914;42.668;23.346;2023-04-07T01:49:02;94196.32;;;4.46;56.89
5777;BME280;2914;42.668;23.346;2023-04-07T01:51:32;94199.35;;;4.34;60.61
5777;BME280;2914;42.668;23.346;2023-04-07T01:54:03;94202.58;;;4.37;62.46
5777;BME280;2914;42.668;23.346;2023-04-07T01:56:33;94195.13;;;4.44;62.94
5777;BME280;2914;42.668;23.346;2023-04-07T01:59:02;94193.95;;;4.48;63.32
5777;BME280;2914;42.668;23.346;2023-04-07T02:01:31;94191.23;;;4.55;63.43
5777;BME280;2914;42.668;23.346;2023-04-07T02:04:04;94189.70;;;4.58;63.60
5777;BME280;2914;42.668;23.346;2023-04-07T02:06:37;94185.05;;;4.45;64.55
5777;BME280;2914;42.668;23.346;2023-04-07T02:09:09;94188.88;;;4.22;65.50
5777;BME280;2914;42.668;23.346;2023-04-07T02:11:40;94189.83;;;4.27;65.17
5777;BME280;2914;42.668;23.346;2023-04-07T02:14:11;94189.05;;;4.44;64.68
5777;BME280;2914;42.668;23.346;2023-04-07T02:16:41;94190.04;;;4.48;64.88
5777;BME280;2914;42.668;23.346;2023-04-07T02:19:11;94183.52;;;4.54;64.77
5777;BME280;2914;42.668;23.346;2023-04-07T02:21:41;94184.02;;;4.23;65.77
5777;BME280;2914;42.668;23.346;2023-04-07T02:24:11;94182.44;;;4.15;66.66
5777;BME280;2914;42.668;23.346;2023-04-07T02:26:41;94182.81;;;4.16;66.68
5777;BME280;2914;42.668;23.346;2023-04-07T02:29:10;94182.25;;;4.30;65.96
5777;BME280;2914;42.668;23.346;2023-04-07T02:31:39;94186.81;;;4.15;66.56
5777;BME280;2914;42.668;23.346;2023-04-07T02:34:08;94184.52;;;4.29;66.29
5777;BME280;2914;42.668;23.346;2023-04-07T02:36:37;94180.75;;;4.38;66.12
5777;BME280;2914;42.668;23.346;2023-04-07T02:39:07;94189.28;;;4.35;66.47
5777;BME280;2914;42.668;23.346;2023-04-07T02:41:37;94181.31;;;4.31;66.88
5777;BME280;2914;42.668;23.346;2023-04-07T02:46:48;94186.27;;;4.58;70.57
5777;BME280;2914;42.668;23.346;2023-04-07T02:52:01;94189.58;;;4.60;66.88
5777;BME280;2914;42.668;23.346;2023-04-07T02:54:37;94191.21;;;4.44;67.92
5777;BME280;2914;42.668;23.346;2023-04-07T02:57:06;94193.28;;;4.57;66.54
5777;BME280;2914;42.668;23.346;2023-04-07T02:59:37;94198.50;;;4.57;66.33
5777;BME280;2914;42.668;23.346;2023-04-07T03:02:11;94194.47;;;4.59;66.25
5777;BME280;2914;42.668;23.346;2023-04-07T03:04:40;94203.27;;;4.69;65.20
5777;BME280;2914;42.668;23.346;2023-04-07T03:07:09;94204.56;;;4.64;64.73
5777;BME280;2914;42.668;23.346;2023-04-07T03:09:38;94198.77;;;4.66;64.45
5777;BME280;2914;42.668;23.346;2023-04-07T03:12:08;94198.97;;;4.63;65.40
5777;BME280;2914;42.668;23.346;2023-04-07T03:14:37;94194.98;;;4.75;67.56
5777;BME280;2914;42.668;23.346;2023-04-07T03:17:06;94203.38;;;4.68;67.85
5777;BME280;2914;42.668;23.346;2023-04-07T03:19:35;94194.98;;;4.81;66.52
5777;BME280;2914;42.668;23.346;2023-04-07T03:22:04;94195.81;;;4.87;65.25
5777;BME280;2914;42.668;23.346;2023-04-07T03:24:33;94201.66;;;4.97;63.75
5777;BME280;2914;42.668;23.346;2023-04-07T03:27:02;94194.42;;;4.95;64.63
5777;BME280;2914;42.668;23.346;2023-04-07T03:29:31;94197.73;;;4.91;67.91
5777;BME280;2914;42.668;23.346;2023-04-07T03:32:00;94190.83;;;4.90;65.87
5777;BME280;2914;42.668;23.346;2023-04-07T03:34:30;94191.89;;;4.87;66.24
5777;BME280;2914;42.668;23.346;2023-04-07T03:36:59;94189.84;;;4.68;66.87
5777;BME280;2914;42.668;23.346;2023-04-07T03:39:28;94187.95;;;4.65;62.26
5777;BME280;2914;42.668;23.346;2023-04-07T03:41:58;94185.53;;;4.56;60.46
5777;BME280;2914;42.668;23.346;2023-04-07T03:44:27;94186.80;;;4.39;57.96
5777;BME280;2914;42.668;23.346;2023-04-07T03:49:33;94188.70;;;4.07;56.08
5777;BME280;2914;42.668;23.346;2023-04-07T03:54:41;94194.38;;;4.36;55.79
5777;BME280;2914;42.668;23.346;2023-04-07T03:57:10;94195.91;;;4.28;55.40
5777;BME280;2914;42.668;23.346;2023-04-07T03:59:40;94197.74;;;4.44;55.56
5777;BME280;2914;42.668;23.346;2023-04-07T04:02:09;94197.27;;;4.50;54.41
5777;BME280;2914;42.668;23.346;2023-04-07T04:04:38;94198.78;;;4.36;54.36
5777;BME280;2914;42.668;23.346;2023-04-07T04:07:07;94208.58;;;4.51;54.38
5777;BME280;2914;42.668;23.346;2023-04-07T04:09:36;94210.70;;;4.51;53.83
5777;BME280;2914;42.668;23.346;2023-04-07T04:12:06;94209.39;;;4.51;53.77
5777;BME280;2914;42.668;23.346;2023-04-07T04:14:35;94212.03;;;4.63;53.87
5777;BME280;2914;42.668;23.346;2023-04-07T04:17:04;94218.62;;;4.74;53.26
5777;BME280;2914;42.668;23.346;2023-04-07T04:19:33;94222.30;;;4.77;55.14
5777;BME280;2914;42.668;23.346;2023-04-07T04:22:02;94216.70;;;4.76;57.03
5777;BME280;2914;42.668;23.346;2023-04-07T04:24:32;94216.21;;;4.71;59.47
5777;BME280;2914;42.668;23.346;2023-04-07T04:27:01;94218.14;;;4.80;60.57
5777;BME280;2914;42.668;23.346;2023-04-07T04:29:30;94224.63;;;4.57;62.55
5777;BME280;2914;42.668;23.346;2023-04-07T04:31:59;94226.53;;;4.67;63.04
5777;BME280;2914;42.668;23.346;2023-04-07T04:34:28;94225.46;;;4.64;63.36
5777;BME280;2914;42.668;23.346;2023-04-07T04:36:58;94227.31;;;4.50;63.99
5777;BME280;2914;42.668;23.346;2023-04-07T04:39:27;94227.00;;;4.61;64.13
5777;BME280;2914;42.668;23.346;2023-04-07T04:41:56;94233.91;;;4.62;63.74
5777;BME280;2914;42.668;23.346;2023-04-07T04:47:01;94239.05;;;4.45;64.44
5777;BME280;2914;42.668;23.346;2023-04-07T04:52:08;94236.02;;;4.56;64.18
5777;BME280;2914;42.668;23.346;2023-04-07T04:57:21;94243.13;;;4.60;64.25
5777;BME280;2914;42.668;23.346;2023-04-07T04:59:50;94243.05;;;4.62;63.95
5777;BME280;2914;42.668;23.346;2023-04-07T05:02:19;94241.88;;;4.66;63.75
5777;BME280;2914;42.668;23.346;2023-04-07T05:04:48;94246.86;;;4.69;63.71
5777;BME280;2914;42.668;23.346;2023-04-07T05:07:17;94242.02;;;4.75;63.47
5777;BME280;2914;42.668;23.346;2023-04-07T05:09:46;94249.38;;;4.76;63.33
5777;BME280;2914;42.668;23.346;2023-04-07T05:12:16;94254.72;;;4.74;63.17
5777;BME280;2914;42.668;23.346;2023-04-07T05:14:45;94253.91;;;4.80;62.90
5777;BME280;2914;42.668;23.346;2023-04-07T05:17:14;94255.80;;;4.83;62.83
5777;BME280;2914;42.668;23.346;2023-04-07T05:19:43;94257.09;;;4.78;63.02
5777;BME280;2914;42.668;23.346;2023-04-07T05:22:12;94246.63;;;5.58;100.00
5777;BME280;2914;42.668;23.346;2023-04-07T05:24:41;94254.47;;;5.64;91.11
5777;BME280;2914;42.668;23.346;2023-04-07T05:27:10;94272.92;;;5.57;70.27
5777;BME280;2914;42.668;23.346;2023-04-07T05:29:39;94275.60;;;5.10;64.08
5777;BME280;2914;42.668;23.346;2023-04-07T05:32:08;94277.87;;;5.26;63.54
5777;BME280;2914;42.668;23.346;2023-04-07T05:37:21;94280.89;;;5.55;62.42
5777;BME280;2914;42.668;23.346;2023-04-07T05:42:27;94278.15;;;5.63;61.37
5777;BME280;2914;42.668;23.346;2023-04-07T05:47:34;94273.40;;;5.68;60.33
5777;BME280;2914;42.668;23.346;2023-04-07T05:50:07;94278.75;;;5.66;60.34
5777;BME280;2914;42.668;23.346;2023-04-07T05:55:16;94253.86;;;5.89;89.43
5777;BME280;2914;42.668;23.346;2023-04-07T06:00:29;94256.58;;;7.90;100.00
5777;BME280;2914;42.668;23.346;2023-04-07T06:02:58;94258.06;;;7.98;100.00
5777;BME280;2914;42.668;23.346;2023-04-07T06:05:28;94265.97;;;7.83;82.75
5777;BME280;2914;42.668;23.346;2023-04-07T06:07:57;94276.58;;;7.51;62.10
5777;BME280;2914;42.668;23.346;2023-04-07T06:10:26;94280.19;;;7.28;57.55
5777;BME280;2914;42.668;23.346;2023-04-07T06:12:55;94277.41;;;7.15;57.31
5777;BME280;2914;42.668;23.346;2023-04-07T06:15:24;94275.40;;;7.34;57.35
5777;BME280;2914;42.668;23.346;2023-04-07T06:17:53;94280.64;;;7.34;57.01
5777;BME280;2914;42.668;23.346;2023-04-07T06:20:22;94276.94;;;7.52;56.61
5777;BME280;2914;42.668;23.346;2023-04-07T06:22:52;94279.56;;;7.30;56.39
5777;BME280;2914;42.668;23.346;2023-04-07T06:25:21;94279.56;;;7.30;56.39
5777;BME280;2914;42.668;23.346;2023-04-07T06:27:50;94277.77;;;7.52;55.43
5777;BME280;2914;42.668;23.346;2023-04-07T06:30:19;94272.97;;;7.00;55.36
5777;BME280;2914;42.668;23.346;2023-04-07T06:32:48;94272.77;;;6.15;57.31
5777;BME280;2914;42.668;23.346;2023-04-07T06:35:20;94273.24;;;6.20;57.35
5777;BME280;2914;42.668;23.346;2023-04-07T06:37:49;94280.10;;;6.38;57.68
5777;BME280;2914;42.668;23.346;2023-04-07T06:43:02;94266.50;;;7.40;54.57
5777;BME280;2914;42.668;23.346;2023-04-07T06:45:31;94274.18;;;7.69;53.70
5777;BME280;2914;42.668;23.346;2023-04-07T06:48:00;94273.69;;;8.00;53.00
5777;BME280;2914;42.668;23.346;2023-04-07T06:50:29;94282.83;;;8.06;50.68
5777;BME280;2914;42.668;23.346;2023-04-07T06:52:58;94268.05;;;8.14;51.04
5777;BME280;2914;42.668;23.346;2023-04-07T06:55:27;94268.05;;;8.14;51.04
5777;BME280;2914;42.668;23.346;2023-04-07T06:57:56;94278.64;;;8.98;50.00
5777;BME280;2914;42.668;23.346;2023-04-07T07:00:25;94278.64;;;8.98;50.00
5777;BME280;2914;42.668;23.346;2023-04-07T07:02:56;94274.45;;;8.47;50.18
5777;BME280;2914;42.668;23.346;2023-04-07T07:05:25;94279.56;;;8.48;50.08
5777;BME280;2914;42.668;23.346;2023-04-07T07:07:55;94283.27;;;8.81;51.13
5777;BME280;2914;42.668;23.346;2023-04-07T07:10:24;94276.27;;;8.95;49.66
5777;BME280;2914;42.668;23.346;2023-04-07T07:12:53;94280.83;;;9.13;48.92
5777;BME280;2914;42.668;23.346;2023-04-07T07:18:02;94284.70;;;9.19;47.36
5777;BME280;2914;42.668;23.346;2023-04-07T07:20:31;94272.11;;;9.22;42.74
5777;BME280;2914;42.668;23.346;2023-04-07T07:23:00;94272.11;;;9.22;42.74
5777;BME280;2914;42.668;23.346;2023-04-07T07:25:30;94250.40;;;9.81;64.60
5777;BME280;2914;42.668;23.346;2023-04-07T07:28:02;94250.40;;;9.81;64.60
5777;BME280;2914;42.668;23.346;2023-04-07T07:30:32;94255.20;;;10.10;56.37
5777;BME280;2914;42.668;23.346;2023-04-07T07:33:02;94255.20;;;10.10;56.37
5777;BME280;2914;42.668;23.346;2023-04-07T07:35:31;94275.61;;;10.35;43.95
5777;BME280;2914;42.668;23.346;2023-04-07T07:38:01;94272.55;;;10.40;41.56
5777;BME280;2914;42.668;23.346;2023-04-07T07:40:30;94275.84;;;10.28;40.35
5777;BME280;2914;42.668;23.346;2023-04-07T07:45:43;94283.74;;;9.53;40.90
5777;BME280;2914;42.668;23.346;2023-04-07T07:50:50;94273.42;;;9.22;41.38
5777;BME280;2914;42.668;23.346;2023-04-07T07:56:03;94286.61;;;9.46;42.47
5777;BME280;2914;42.668;23.346;2023-04-07T07:58:32;94281.31;;;9.22;41.66
5777;BME280;2914;42.668;23.346;2023-04-07T08:01:01;94275.65;;;9.07;41.39
5777;BME280;2914;42.668;23.346;2023-04-07T08:03:31;94278.83;;;8.72;42.39
5777;BME280;2914;42.668;23.346;2023-04-07T08:06:00;94285.08;;;8.90;42.56
5777;BME280;2914;42.668;23.346;2023-04-07T08:08:29;94283.05;;;8.98;42.06
5777;BME280;2914;42.668;23.346;2023-04-07T08:10:58;94283.63;;;8.82;41.24
5777;BME280;2914;42.668;23.346;2023-04-07T08:13:27;94282.42;;;8.61;41.09
5777;BME280;2914;42.668;23.346;2023-04-07T08:15:57;94286.30;;;8.66;42.39
5777;BME280;2914;42.668;23.346;2023-04-07T08:18:26;94275.78;;;8.66;42.32
5777;BME280;2914;42.668;23.346;2023-04-07T08:20:55;94275.78;;;8.66;42.32
5777;BME280;2914;42.668;23.346;2023-04-07T08:23:24;94288.78;;;8.58;43.01
5777;BME280;2914;42.668;23.346;2023-04-07T08:25:53;94284.77;;;8.64;41.17
5777;BME280;2914;42.668;23.346;2023-04-07T08:28:24;94284.77;;;8.64;41.17
5777;BME280;2914;42.668;23.346;2023-04-07T08:30:54;94285.33;;;8.68;42.38
5777;BME280;2914;42.668;23.346;2023-04-07T08:33:23;94285.33;;;8.68;42.38
5777;BME280;2914;42.668;23.346;2023-04-07T08:35:52;94279.59;;;8.43;42.46
5777;BME280;2914;42.668;23.346;2023-04-07T08:38:21;94279.59;;;8.43;42.46
5777;BME280;2914;42.668;23.346;2023-04-07T08:40:53;94279.42;;;8.50;42.30
5777;BME280;2914;42.668;23.346;2023-04-07T08:43:22;94282.83;;;8.46;42.20
5777;BME280;2914;42.668;23.346;2023-04-07T08:45:55;94271.96;;;8.05;43.27
5777;BME280;2914;42.668;23.346;2023-04-07T08:48:25;94276.55;;;8.12;43.36
5777;BME280;2914;42.668;23.346;2023-04-07T08:50:57;94282.41;;;8.10;43.05
5777;BME280;2914;42.668;23.346;2023-04-07T08:56:07;94275.27;;;8.22;43.10
5777;BME280;2914;42.668;23.346;2023-04-07T08:58:37;94275.20;;;8.28;43.56
5777;BME280;2914;42.668;23.346;2023-04-07T09:01:07;94286.41;;;8.45;43.90
5777;BME280;2914;42.668;23.346;2023-04-07T09:03:37;94286.41;;;8.45;43.90
5777;BME280;2914;42.668;23.346;2023-04-07T09:06:06;94286.52;;;8.44;42.56
5777;BME280;2914;42.668;23.346;2023-04-07T09:08:35;94294.88;;;8.49;42.23
5777;BME280;2914;42.668;23.346;2023-04-07T09:11:05;94282.98;;;8.64;41.92
5777;BME280;2914;42.668;23.346;2023-04-07T09:13:34;94282.24;;;8.78;41.61
5777;BME280;2914;42.668;23.346;2023-04-07T09:16:03;94283.05;;;8.98;41.73
5777;BME280;2914;42.668;23.346;2023-04-07T09:18:33;94283.05;;;8.98;41.73
5777;BME280;2914;42.668;23.346;2023-04-07T09:21:04;94276.60;;;9.16;40.89
5777;BME280;2914;42.668;23.346;2023-04-07T09:23:35;94276.60;;;9.16;40.89
5777;BME280;2914;42.668;23.346;2023-04-07T09:26:21;94275.64;;;9.17;41.15
5777;BME280;2914;42.668;23.346;2023-04-07T09:28:53;94285.61;;;9.04;41.06
5777;BME280;2914;42.668;23.346;2023-04-07T09:31:23;94286.08;;;9.23;42.31
5777;BME280;2914;42.668;23.346;2023-04-07T09:33:53;94286.08;;;9.23;42.31
5777;BME280;2914;42.668;23.346;2023-04-07T09:36:25;94283.25;;;9.20;41.96
5777;BME280;2914;42.668;23.346;2023-04-07T09:38:55;94283.25;;;9.20;41.96
5777;BME280;2914;42.668;23.346;2023-04-07T09:41:28;94293.30;;;9.21;41.67
5777;BME280;2914;42.668;23.346;2023-04-07T09:43:57;94286.00;;;9.28;41.85
5777;BME280;2914;42.668;23.346;2023-04-07T09:46:26;94290.09;;;9.27;41.65
5777;BME280;2914;42.668;23.346;2023-04-07T09:49:02;94290.09;;;9.27;41.65
5777;BME280;2914;42.668;23.346;2023-04-07T09:51:33;94299.45;;;9.25;41.31
5777;BME280;2914;42.668;23.346;2023-04-07T09:54:02;94296.95;;;9.33;42.01
5777;BME280;2914;42.668;23.346;2023-04-07T09:56:31;94296.95;;;9.33;42.01
5777;BME280;2914;42.668;23.346;2023-04-07T09:59:01;94299.80;;;9.26;41.74
5777;BME280;2914;42.668;23.346;2023-04-07T10:01:30;94300.41;;;9.24;41.95
5777;BME280;2914;42.668;23.346;2023-04-07T10:04:00;94305.15;;;9.21;42.36
5777;BME280;2914;42.668;23.346;2023-04-07T10:06:30;94294.46;;;9.32;42.39
5777;BME280;2914;42.668;23.346;2023-04-07T10:09:00;94294.46;;;9.32;42.39
5777;BME280;2914;42.668;23.346;2023-04-07T10:11:29;94300.28;;;9.36;41.96
5777;BME280;2914;42.668;23.346;2023-04-07T10:13:59;94300.87;;;9.43;41.79
5777;BME280;2914;42.668;23.346;2023-04-07T10:16:29;94297.30;;;9.34;41.57
5777;BME280;2914;42.668;23.346;2023-04-07T10:18:58;94291.39;;;9.37;41.54
5777;BME280;2914;42.668;23.346;2023-04-07T10:21:27;94291.39;;;9.37;41.54
5777;BME280;2914;42.668;23.346;2023-04-07T10:24:03;94300.06;;;9.43;41.97
5777;BME280;2914;42.668;23.346;2023-04-07T10:26:33;94294.52;;;9.36;42.58
5777;BME280;2914;42.668;23.346;2023-04-07T10:29:07;94300.78;;;9.15;41.83
5777;BME280;2914;42.668;23.346;2023-04-07T10:31:36;94294.56;;;9.07;42.07
5777;BME280;2914;42.668;23.346;2023-04-07T10:34:06;94294.56;;;9.07;42.07
5777;BME280;2914;42.668;23.346;2023-04-07T10:36:35;94302.78;;;8.88;43.04
5777;BME280;2914;42.668;23.346;2023-04-07T10:39:24;94304.03;;;8.94;43.07
5777;BME280;2914;42.668;23.346;2023-04-07T10:41:53;94304.03;;;8.94;43.07
5777;BME280;2914;42.668;23.346;2023-04-07T10:44:45;94303.70;;;9.12;42.96
5777;BME280;2914;42.668;23.346;2023-04-07T10:47:17;94303.41;;;9.15;42.96
5777;BME280;2914;42.668;23.346;2023-04-07T10:53:07;94306.80;;;9.12;44.27
5777;BME280;2914;42.668;23.346;2023-04-07T10:58:20;94307.36;;;9.15;44.70
5777;BME280;2914;42.668;23.346;2023-04-07T11:06:47;94318.57;;;8.98;45.34
5777;BME280;2914;42.668;23.346;2023-04-07T11:09:19;94318.36;;;8.95;45.37
5777;BME280;2914;42.668;23.346;2023-04-07T11:11:53;94321.41;;;8.81;45.07
5777;BME280;2914;42.668;23.346;2023-04-07T11:14:26;94321.27;;;9.02;46.48
5777;BME280;2914;42.668;23.346;2023-04-07T11:16:56;94321.27;;;9.02;46.48
5777;BME280;2914;42.668;23.346;2023-04-07T11:19:26;94319.28;;;9.10;45.46
5777;BME280;2914;42.668;23.346;2023-04-07T11:22:14;94313.52;;;9.10;45.70
5777;BME280;2914;42.668;23.346;2023-04-07T11:24:44;94318.36;;;9.05;45.85
5777;BME280;2914;42.668;23.346;2023-04-07T11:27:13;94318.36;;;9.05;45.85
5777;BME280;2914;42.668;23.346;2023-04-07T11:32:23;94324.72;;;8.93;46.34
5777;BME280;2914;42.668;23.346;2023-04-07T11:34:52;94324.72;;;8.93;46.34
5777;BME280;2914;42.668;23.346;2023-04-07T11:37:23;94330.09;;;9.07;46.25
5777;BME280;2914;42.668;23.346;2023-04-07T11:42:38;94318.64;;;9.12;45.76
5777;BME280;2914;42.668;23.346;2023-04-07T11:45:15;94318.64;;;9.12;45.76
5777;BME280;2914;42.668;23.346;2023-04-07T11:47:46;94325.92;;;9.14;46.04
5777;BME280;2914;42.668;23.346;2023-04-07T11:50:16;94318.42;;;9.09;46.28
5777;BME280;2914;42.668;23.346;2023-04-07T11:52:47;94324.39;;;9.11;46.21
5777;BME280;2914;42.668;23.346;2023-04-07T11:55:20;94324.19;;;9.09;46.23
5777;BME280;2914;42.668;23.346;2023-04-07T11:57:51;94319.56;;;9.07;47.00
5777;BME280;2914;42.668;23.346;2023-04-07T12:00:20;94313.58;;;9.14;46.68
5777;BME280;2914;42.668;23.346;2023-04-07T12:02:50;94325.00;;;9.09;47.00
5777;BME280;2914;42.668;23.346;2023-04-07T12:05:19;94325.00;;;9.09;47.00
5777;BME280;2914;42.668;23.346;2023-04-07T12:07:53;94319.06;;;9.07;47.62
5777;BME280;2914;42.668;23.346;2023-04-07T12:10:25;94312.77;;;9.14;47.58
5777;BME280;2914;42.668;23.346;2023-04-07T12:12:54;94321.75;;;9.21;47.31
5777;BME280;2914;42.668;23.346;2023-04-07T12:15:23;94322.33;;;9.15;46.77
5777;BME280;2914;42.668;23.346;2023-04-07T12:17:52;94324.96;;;9.15;48.09
5777;BME280;2914;42.668;23.346;2023-04-07T12:20:22;94315.40;;;9.14;47.47
5777;BME280;2914;42.668;23.346;2023-04-07T12:25:47;94315.87;;;9.33;47.32
5777;BME280;2914;42.668;23.346;2023-04-07T12:30:54;94316.41;;;9.37;47.29
5777;BME280;2914;42.668;23.346;2023-04-07T12:33:23;94317.86;;;9.35;46.86
5777;BME280;2914;42.668;23.346;2023-04-07T12:38:36;94324.11;;;9.05;47.73
5777;BME280;2914;42.668;23.346;2023-04-07T12:41:05;94324.11;;;9.05;47.73
5777;BME280;2914;42.668;23.346;2023-04-07T12:43:35;94309.36;;;9.08;47.81
5777;BME280;2914;42.668;23.346;2023-04-07T12:46:04;94313.30;;;9.17;48.85
5777;BME280;2914;42.668;23.346;2023-04-07T12:48:33;94316.07;;;9.16;48.19
5777;BME280;2914;42.668;23.346;2023-04-07T12:51:02;94316.07;;;9.16;48.19
5777;BME280;2914;42.668;23.346;2023-04-07T12:53:32;94319.95;;;9.12;48.08
5777;BME280;2914;42.668;23.346;2023-04-07T12:56:01;94319.88;;;9.17;47.52
5777;BME280;2914;42.668;23.346;2023-04-07T13:01:14;94321.53;;;9.28;47.75
5777;BME280;2914;42.668;23.346;2023-04-07T13:03:43;94327.38;;;9.22;47.60
5777;BME280;2914;42.668;23.346;2023-04-07T13:06:13;94316.86;;;9.12;47.35
5777;BME280;2914;42.668;23.346;2023-04-07T13:08:42;94316.86;;;9.12;47.35
5777;BME280;2914;42.668;23.346;2023-04-07T13:11:11;94325.35;;;9.20;47.60
5777;BME280;2914;42.668;23.346;2023-04-07T13:13:40;94327.03;;;9.02;47.52
5777;BME280;2914;42.668;23.346;2023-04-07T13:16:09;94332.89;;;8.90;47.87
5777;BME280;2914;42.668;23.346;2023-04-07T13:18:38;94335.16;;;8.79;47.64
5777;BME280;2914;42.668;23.346;2023-04-07T13:21:08;94335.16;;;8.79;47.64
5777;BME280;2914;42.668;23.346;2023-04-07T13:23:37;94330.55;;;8.87;48.05
5777;BME280;2914;42.668;23.346;2023-04-07T13:26:06;94327.34;;;8.83;48.66
5777;BME280;2914;42.668;23.346;2023-04-07T13:28:35;94332.54;;;8.89;48.82
5777;BME280;2914;42.668;23.346;2023-04-07T13:31:05;94332.54;;;8.89;48.82
5777;BME280;2914;42.668;23.346;2023-04-07T13:33:34;94331.86;;;8.77;49.48
5777;BME280;2914;42.668;23.346;2023-04-07T13:36:04;94336.63;;;8.77;49.53
5777;BME280;2914;42.668;23.346;2023-04-07T13:38:33;94338.00;;;8.72;49.09
5777;BME280;2914;42.668;23.346;2023-04-07T13:41:03;94349.23;;;8.83;49.06
5777;BME280;2914;42.668;23.346;2023-04-07T13:43:33;94349.23;;;8.83;49.06
5777;BME280;2914;42.668;23.346;2023-04-07T13:46:02;94341.56;;;8.86;49.61
5777;BME280;2914;42.668;23.346;2023-04-07T13:48:31;94352.48;;;9.01;48.96
5777;BME280;2914;42.668;23.346;2023-04-07T13:51:00;94357.68;;;8.97;48.71
5777;BME280;2914;42.668;23.346;2023-04-07T13:53:29;94357.68;;;8.97;48.71
5777;BME280;2914;42.668;23.346;2023-04-07T13:55:58;94350.34;;;8.81;49.25
5777;BME280;2914;42.668;23.346;2023-04-07T13:58:28;94350.50;;;8.64;49.51
5777;BME280;2914;42.668;23.346;2023-04-07T14:00:57;94360.47;;;8.60;50.71
5777;BME280;2914;42.668;23.346;2023-04-07T14:03:26;94360.47;;;8.60;50.71
5777;BME280;2914;42.668;23.346;2023-04-07T14:05:55;94357.84;;;8.60;50.53
5777;BME280;2914;42.668;23.346;2023-04-07T14:08:26;94362.06;;;8.57;50.79
5777;BME280;2914;42.668;23.346;2023-04-07T14:10:56;94371.67;;;8.62;51.45
5777;BME280;2914;42.668;23.346;2023-04-07T14:13:25;94366.34;;;8.58;51.15
5777;BME280;2914;42.668;23.346;2023-04-07T14:15:54;94368.80;;;8.50;51.37
5777;BME280;2914;42.668;23.346;2023-04-07T14:18:23;94382.58;;;8.48;51.63
5777;BME280;2914;42.668;23.346;2023-04-07T14:20:54;94387.97;;;8.46;52.26
5777;BME280;2914;42.668;23.346;2023-04-07T14:23:23;94383.97;;;8.52;52.72
5777;BME280;2914;42.668;23.346;2023-04-07T14:25:52;94383.97;;;8.52;52.72
5777;BME280;2914;42.668;23.346;2023-04-07T14:28:21;94391.42;;;8.47;53.23
5777;BME280;2914;42.668;23.346;2023-04-07T14:30:50;94394.00;;;8.53;53.83
5777;BME280;2914;42.668;23.346;2023-04-07T14:33:21;94394.00;;;8.53;53.83
5777;BME280;2914;42.668;23.346;2023-04-07T14:35:50;94391.10;;;8.25;54.22
5777;BME280;2914;42.668;23.346;2023-04-07T14:38:19;94391.59;;;8.24;54.48
5777;BME280;2914;42.668;23.346;2023-04-07T14:40:51;94388.52;;;8.19;54.75
5777;BME280;2914;42.668;23.346;2023-04-07T14:43:20;94386.67;;;8.25;55.15
5777;BME280;2914;42.668;23.346;2023-04-07T14:45:49;94388.92;;;8.30;54.87
5777;BME280;2914;42.668;23.346;2023-04-07T14:48:18;94391.78;;;8.27;55.41
5777;BME280;2914;42.668;23.346;2023-04-07T14:50:48;94391.78;;;8.27;55.41
5777;BME280;2914;42.668;23.346;2023-04-07T14:53:17;94390.97;;;8.26;56.04
5777;BME280;2914;42.668;23.346;2023-04-07T14:55:46;94400.03;;;8.28;55.80
5777;BME280;2914;42.668;23.346;2023-04-07T14:58:15;94404.29;;;8.04;57.46
5777;BME280;2914;42.668;23.346;2023-04-07T15:00:44;94404.29;;;8.04;57.46